sensor_id;sensor_type;location;lat;lon;timestamp;pressure;altitude;pressure_sealevel;temperature;humidity
40650;BME280;26342;42.826;23.992;2022-09-19T00:01:17;95426.94;;;7.12;100.00
40650;BME280;26342;42.826;23.992;2022-09-19T00:03:45;95426.81;;;7.07;100.00
40650;BME280;26342;42.826;23.992;2022-09-19T00:06:13;95422.66;;;6.99;100.00
40650;BME280;26342;42.826;23.992;2022-09-19T00:08:42;95426.72;;;6.90;100.00
40650;BME280;26342;42.826;23.992;2022-09-19T00:11:10;95429.25;;;6.85;100.00
40650;BME280;26342;42.826;23.992;2022-09-19T00:13:37;95418.88;;;6.83;100.00
40650;BME280;26342;42.826;23.992;2022-09-19T00:16:05;95417.84;;;6.84;100.00
40650;BME280;26342;42.826;23.992;2022-09-19T00:18:31;95418.53;;;6.91;100.00
40650;BME280;26342;42.826;23.992;2022-09-19T00:20:57;95409.63;;;6.86;100.00
40650;BME280;26342;42.826;23.992;2022-09-19T00:23:22;95416.56;;;6.87;100.00
40650;BME280;26342;42.826;23.992;2022-09-19T00:26:11;95409.44;;;6.87;100.00
40650;BME280;26342;42.826;23.992;2022-09-19T00:28:38;95411.97;;;6.82;100.00
40650;BME280;26342;42.826;23.992;2022-09-19T00:31:04;95408.50;;;6.82;100.00
40650;BME280;26342;42.826;23.992;2022-09-19T00:33:32;95411.03;;;6.77;100.00
40650;BME280;26342;42.826;23.992;2022-09-19T00:36:00;95406.19;;;6.74;100.00
40650;BME280;26342;42.826;23.992;2022-09-19T00:38:29;95406.91;;;6.81;100.00
40650;BME280;26342;42.826;23.992;2022-09-19T00:40:57;95407.34;;;6.78;100.00
40650;BME280;26342;42.826;23.992;2022-09-19T00:43:24;95395.81;;;6.84;100.00
40650;BME280;26342;42.826;23.992;2022-09-19T00:45:51;95398.47;;;6.84;100.00
40650;BME280;26342;42.826;23.992;2022-09-19T00:48:19;95394.44;;;6.81;100.00
40650;BME280;26342;42.826;23.992;2022-09-19T00:50:52;95386.25;;;6.83;100.00
40650;BME280;26342;42.826;23.992;2022-09-19T00:53:22;95395.69;;;6.79;100.00
40650;BME280;26342;42.826;23.992;2022-09-19T00:55:53;95399.06;;;6.74;100.00
40650;BME280;26342;42.826;23.992;2022-09-19T01:00:52;95398.25;;;6.62;100.00
40650;BME280;26342;42.826;23.992;2022-09-19T01:03:18;95397.44;;;6.61;100.00
40650;BME280;26342;42.826;23.992;2022-09-19T01:06:23;95386.13;;;6.54;100.00
40650;BME280;26342;42.826;23.992;2022-09-19T01:17:10;95382.94;;;6.40;100.00
40650;BME280;26342;42.826;23.992;2022-09-19T01:20:11;95385.91;;;6.32;100.00
40650;BME280;26342;42.826;23.992;2022-09-19T01:28:32;95378.19;;;6.31;100.00
40650;BME280;26342;42.826;23.992;2022-09-19T01:33:49;95373.00;;;6.24;100.00
40650;BME280;26342;42.826;23.992;2022-09-19T01:36:18;95393.50;;;6.29;100.00
40650;BME280;26342;42.826;23.992;2022-09-19T01:38:46;95387.16;;;6.18;100.00
40650;BME280;26342;42.826;23.992;2022-09-19T01:41:15;95382.09;;;6.17;100.00
40650;BME280;26342;42.826;23.992;2022-09-19T01:43:41;95381.50;;;6.14;100.00
40650;BME280;26342;42.826;23.992;2022-09-19T01:46:14;95384.06;;;6.21;100.00
40650;BME280;26342;42.826;23.992;2022-09-19T01:48:53;95376.44;;;6.13;100.00
40650;BME280;26342;42.826;23.992;2022-09-19T01:51:31;95377.25;;;6.13;100.00
40650;BME280;26342;42.826;23.992;2022-09-19T02:05:36;95380.94;;;6.01;100.00
40650;BME280;26342;42.826;23.992;2022-09-19T02:08:15;95368.50;;;6.01;100.00
40650;BME280;26342;42.826;23.992;2022-09-19T02:10:46;95366.66;;;6.02;100.00
40650;BME280;26342;42.826;23.992;2022-09-19T02:13:15;95363.28;;;5.95;100.00
40650;BME280;26342;42.826;23.992;2022-09-19T02:15:47;95358.22;;;5.93;100.00
40650;BME280;26342;42.826;23.992;2022-09-19T02:18:27;95359.22;;;5.92;100.00
40650;BME280;26342;42.826;23.992;2022-09-19T02:20:59;95362.72;;;5.93;100.00
40650;BME280;26342;42.826;23.992;2022-09-19T02:23:29;95354.47;;;5.82;100.00
40650;BME280;26342;42.826;23.992;2022-09-19T02:25:59;95359.31;;;5.85;100.00
40650;BME280;26342;42.826;23.992;2022-09-19T02:28:32;95359.66;;;5.89;100.00
40650;BME280;26342;42.826;23.992;2022-09-19T02:30:59;95355.63;;;5.86;100.00
40650;BME280;26342;42.826;23.992;2022-09-19T02:33:25;95352.63;;;5.83;100.00
40650;BME280;26342;42.826;23.992;2022-09-19T02:36:04;95354.94;;;5.79;100.00
40650;BME280;26342;42.826;23.992;2022-09-19T02:44:01;95357.81;;;5.78;100.00
40650;BME280;26342;42.826;23.992;2022-09-19T02:49:43;95357.69;;;5.73;100.00
40650;BME280;26342;42.826;23.992;2022-09-19T02:52:17;95355.25;;;5.71;100.00
40650;BME280;26342;42.826;23.992;2022-09-19T02:54:54;95350.06;;;5.65;100.00
40650;BME280;26342;42.826;23.992;2022-09-19T02:57:22;95356.00;;;5.60;100.00
40650;BME280;26342;42.826;23.992;2022-09-19T02:59:51;95353.50;;;5.65;100.00
40650;BME280;26342;42.826;23.992;2022-09-19T03:02:24;95357.34;;;5.69;100.00
40650;BME280;26342;42.826;23.992;2022-09-19T03:04:59;95338.19;;;5.55;100.00
40650;BME280;26342;42.826;23.992;2022-09-19T03:07:31;95348.78;;;5.67;100.00
40650;BME280;26342;42.826;23.992;2022-09-19T03:10:08;95350.53;;;5.73;100.00
40650;BME280;26342;42.826;23.992;2022-09-19T03:12:49;95358.00;;;5.76;100.00
40650;BME280;26342;42.826;23.992;2022-09-19T03:15:32;95361.13;;;5.73;100.00
40650;BME280;26342;42.826;23.992;2022-09-19T03:18:00;95351.66;;;5.66;100.00
40650;BME280;26342;42.826;23.992;2022-09-19T03:20:27;95349.91;;;5.59;100.00
40650;BME280;26342;42.826;23.992;2022-09-19T03:22:52;95354.06;;;5.55;100.00
40650;BME280;26342;42.826;23.992;2022-09-19T03:25:19;95357.75;;;5.54;100.00
40650;BME280;26342;42.826;23.992;2022-09-19T03:27:44;95358.66;;;5.60;100.00
40650;BME280;26342;42.826;23.992;2022-09-19T03:30:12;95353.50;;;5.53;100.00
40650;BME280;26342;42.826;23.992;2022-09-19T03:32:37;95356.13;;;5.53;100.00
40650;BME280;26342;42.826;23.992;2022-09-19T03:35:05;95358.19;;;5.51;100.00
40650;BME280;26342;42.826;23.992;2022-09-19T03:37:31;95360.25;;;5.49;100.00
40650;BME280;26342;42.826;23.992;2022-09-19T03:40:01;95356.00;;;5.48;100.00
40650;BME280;26342;42.826;23.992;2022-09-19T03:42:27;95356.47;;;5.45;100.00
40650;BME280;26342;42.826;23.992;2022-09-19T03:44:53;95358.50;;;5.43;100.00
40650;BME280;26342;42.826;23.992;2022-09-19T03:47:19;95356.53;;;5.39;100.00
40650;BME280;26342;42.826;23.992;2022-09-19T03:49:47;95359.31;;;5.44;100.00
40650;BME280;26342;42.826;23.992;2022-09-19T03:52:18;95358.72;;;5.42;100.00
40650;BME280;26342;42.826;23.992;2022-09-19T03:54:44;95352.47;;;5.36;100.00
40650;BME280;26342;42.826;23.992;2022-09-19T03:57:11;95345.00;;;5.33;100.00
40650;BME280;26342;42.826;23.992;2022-09-19T03:59:37;95341.91;;;5.36;100.00
40650;BME280;26342;42.826;23.992;2022-09-19T04:02:09;95344.69;;;5.41;100.00
40650;BME280;26342;42.826;23.992;2022-09-19T04:04:37;95336.28;;;5.44;100.00
40650;BME280;26342;42.826;23.992;2022-09-19T04:07:04;95334.75;;;5.37;100.00
40650;BME280;26342;42.826;23.992;2022-09-19T04:09:30;95338.09;;;5.32;100.00
40650;BME280;26342;42.826;23.992;2022-09-19T04:11:56;95343.41;;;5.32;100.00
40650;BME280;26342;42.826;23.992;2022-09-19T04:14:22;95340.75;;;5.32;100.00
40650;BME280;26342;42.826;23.992;2022-09-19T04:16:48;95337.38;;;5.25;100.00
40650;BME280;26342;42.826;23.992;2022-09-19T04:19:14;95336.34;;;5.26;100.00
40650;BME280;26342;42.826;23.992;2022-09-19T04:21:40;95343.94;;;5.22;100.00
40650;BME280;26342;42.826;23.992;2022-09-19T04:24:10;95339.13;;;5.31;100.00
40650;BME280;26342;42.826;23.992;2022-09-19T04:26:35;95340.53;;;5.33;100.00
40650;BME280;26342;42.826;23.992;2022-09-19T04:29:02;95327.06;;;5.35;100.00
40650;BME280;26342;42.826;23.992;2022-09-19T04:31:31;95325.69;;;5.32;100.00
40650;BME280;26342;42.826;23.992;2022-09-19T04:34:07;95333.63;;;5.32;100.00
40650;BME280;26342;42.826;23.992;2022-09-19T04:36:34;95331.19;;;5.31;100.00
40650;BME280;26342;42.826;23.992;2022-09-19T04:39:00;95329.94;;;5.33;100.00
40650;BME280;26342;42.826;23.992;2022-09-19T04:41:32;95332.59;;;5.33;100.00
40650;BME280;26342;42.826;23.992;2022-09-19T04:43:59;95332.91;;;5.37;100.00
40650;BME280;26342;42.826;23.992;2022-09-19T04:46:25;95339.25;;;5.36;100.00
40650;BME280;26342;42.826;23.992;2022-09-19T04:48:51;95337.22;;;5.38;100.00
40650;BME280;26342;42.826;23.992;2022-09-19T04:51:18;95343.06;;;5.40;100.00
40650;BME280;26342;42.826;23.992;2022-09-19T04:53:44;95341.59;;;5.44;100.00
40650;BME280;26342;42.826;23.992;2022-09-19T04:56:09;95330.78;;;5.46;100.00
40650;BME280;26342;42.826;23.992;2022-09-19T04:58:36;95338.19;;;5.55;100.00
40650;BME280;26342;42.826;23.992;2022-09-19T05:01:04;95337.16;;;5.56;100.00
40650;BME280;26342;42.826;23.992;2022-09-19T05:03:30;95327.22;;;5.52;100.00
40650;BME280;26342;42.826;23.992;2022-09-19T05:05:56;95338.19;;;5.55;100.00
40650;BME280;26342;42.826;23.992;2022-09-19T05:08:25;95329.44;;;5.55;100.00
40650;BME280;26342;42.826;23.992;2022-09-19T05:10:54;95332.88;;;5.55;100.00
40650;BME280;26342;42.826;23.992;2022-09-19T05:13:22;95336.50;;;5.73;100.00
40650;BME280;26342;42.826;23.992;2022-09-19T05:15:48;95332.63;;;5.87;100.00
40650;BME280;26342;42.826;23.992;2022-09-19T05:18:20;95327.44;;;5.92;100.00
40650;BME280;26342;42.826;23.992;2022-09-19T05:20:50;95321.94;;;5.94;100.00
40650;BME280;26342;42.826;23.992;2022-09-19T05:23:17;95318.97;;;6.02;100.00
40650;BME280;26342;42.826;23.992;2022-09-19T05:25:43;95319.66;;;6.09;100.00
40650;BME280;26342;42.826;23.992;2022-09-19T05:28:08;95319.44;;;6.10;100.00
40650;BME280;26342;42.826;23.992;2022-09-19T05:30:44;95320.59;;;6.26;100.00
40650;BME280;26342;42.826;23.992;2022-09-19T05:33:10;95314.22;;;6.39;100.00
40650;BME280;26342;42.826;23.992;2022-09-19T05:35:37;95311.44;;;6.46;100.00
40650;BME280;26342;42.826;23.992;2022-09-19T05:38:03;95319.75;;;6.61;100.00
40650;BME280;26342;42.826;23.992;2022-09-19T05:40:29;95309.94;;;6.73;100.00
40650;BME280;26342;42.826;23.992;2022-09-19T05:42:54;95321.19;;;6.92;100.00
40650;BME280;26342;42.826;23.992;2022-09-19T05:45:25;95324.94;;;7.08;100.00
40650;BME280;26342;42.826;23.992;2022-09-19T05:47:50;95323.75;;;7.15;100.00
40650;BME280;26342;42.826;23.992;2022-09-19T05:50:16;95316.34;;;7.29;100.00
40650;BME280;26342;42.826;23.992;2022-09-19T05:52:42;95319.72;;;7.41;100.00
40650;BME280;26342;42.826;23.992;2022-09-19T05:55:27;95310.38;;;7.50;100.00
40650;BME280;26342;42.826;23.992;2022-09-19T05:57:55;95312.13;;;7.62;100.00
40650;BME280;26342;42.826;23.992;2022-09-19T06:00:22;95319.47;;;7.71;100.00
40650;BME280;26342;42.826;23.992;2022-09-19T06:05:18;95296.56;;;7.99;100.00
40650;BME280;26342;42.826;23.992;2022-09-19T06:07:43;95302.97;;;8.20;100.00
40650;BME280;26342;42.826;23.992;2022-09-19T06:10:08;95303.44;;;8.33;100.00
40650;BME280;26342;42.826;23.992;2022-09-19T06:12:34;95295.38;;;8.45;100.00
40650;BME280;26342;42.826;23.992;2022-09-19T06:14:59;95300.75;;;8.67;100.00
40650;BME280;26342;42.826;23.992;2022-09-19T06:17:25;95283.91;;;8.83;100.00
40650;BME280;26342;42.826;23.992;2022-09-19T06:19:52;95294.50;;;9.00;100.00
40650;BME280;26342;42.826;23.992;2022-09-19T06:22:17;95287.47;;;9.16;100.00
40650;BME280;26342;42.826;23.992;2022-09-19T06:24:43;95288.78;;;9.35;100.00
40650;BME280;26342;42.826;23.992;2022-09-19T06:27:08;95291.84;;;9.49;100.00
40650;BME280;26342;42.826;23.992;2022-09-19T06:29:34;95289.53;;;9.58;100.00
40650;BME280;26342;42.826;23.992;2022-09-19T06:32:01;95283.03;;;9.75;100.00
40650;BME280;26342;42.826;23.992;2022-09-19T06:34:27;95282.84;;;9.87;100.00
40650;BME280;26342;42.826;23.992;2022-09-19T06:36:52;95275.78;;;10.03;100.00
40650;BME280;26342;42.826;23.992;2022-09-19T06:39:18;95280.72;;;10.21;100.00
40650;BME280;26342;42.826;23.992;2022-09-19T06:41:43;95283.78;;;10.35;100.00
40650;BME280;26342;42.826;23.992;2022-09-19T06:44:12;95280.38;;;10.45;100.00
40650;BME280;26342;42.826;23.992;2022-09-19T06:46:38;95276.69;;;10.51;100.00
40650;BME280;26342;42.826;23.992;2022-09-19T06:49:03;95278.38;;;10.67;100.00
40650;BME280;26342;42.826;23.992;2022-09-19T06:51:33;95271.50;;;10.86;100.00
40650;BME280;26342;42.826;23.992;2022-09-19T06:53:58;95272.91;;;11.04;100.00
40650;BME280;26342;42.826;23.992;2022-09-19T06:56:24;95262.53;;;11.18;100.00
40650;BME280;26342;42.826;23.992;2022-09-19T06:58:49;95274.34;;;11.37;100.00
40650;BME280;26342;42.826;23.992;2022-09-19T07:01:15;95265.03;;;11.55;100.00
40650;BME280;26342;42.826;23.992;2022-09-19T07:03:40;95272.53;;;11.73;100.00
40650;BME280;26342;42.826;23.992;2022-09-19T07:06:06;95261.34;;;11.87;100.00
40650;BME280;26342;42.826;23.992;2022-09-19T07:08:32;95259.19;;;12.14;92.71
40650;BME280;26342;42.826;23.992;2022-09-19T07:10:58;95248.50;;;12.24;88.81
40650;BME280;26342;42.826;23.992;2022-09-19T07:13:23;95244.41;;;12.47;95.77
40650;BME280;26342;42.826;23.992;2022-09-19T07:15:48;95240.91;;;12.62;91.98
40650;BME280;26342;42.826;23.992;2022-09-19T07:18:14;95237.63;;;12.85;90.38
40650;BME280;26342;42.826;23.992;2022-09-19T07:20:41;95235.09;;;13.09;89.46
40650;BME280;26342;42.826;23.992;2022-09-19T07:23:12;95234.25;;;13.24;91.16
40650;BME280;26342;42.826;23.992;2022-09-19T07:25:39;95230.41;;;13.40;87.14
40650;BME280;26342;42.826;23.992;2022-09-19T07:28:06;95226.81;;;13.60;83.93
40650;BME280;26342;42.826;23.992;2022-09-19T07:30:33;95237.38;;;13.81;80.81
40650;BME280;26342;42.826;23.992;2022-09-19T07:33:00;95226.78;;;14.00;78.19
40650;BME280;26342;42.826;23.992;2022-09-19T07:35:28;95228.16;;;14.21;75.60
40650;BME280;26342;42.826;23.992;2022-09-19T07:37:55;95226.72;;;14.34;74.01
40650;BME280;26342;42.826;23.992;2022-09-19T07:40:21;95222.63;;;14.41;69.95
40650;BME280;26342;42.826;23.992;2022-09-19T07:42:47;95220.47;;;14.67;72.25
40650;BME280;26342;42.826;23.992;2022-09-19T07:45:12;95209.00;;;14.86;74.04
40650;BME280;26342;42.826;23.992;2022-09-19T07:47:42;95213.47;;;15.14;74.01
40650;BME280;26342;42.826;23.992;2022-09-19T07:50:08;95209.13;;;15.37;70.72
40650;BME280;26342;42.826;23.992;2022-09-19T07:52:35;95215.47;;;15.65;67.88
40650;BME280;26342;42.826;23.992;2022-09-19T07:55:01;95207.97;;;15.81;61.03
40650;BME280;26342;42.826;23.992;2022-09-19T07:57:26;95207.81;;;15.91;61.89
40650;BME280;26342;42.826;23.992;2022-09-19T07:59:51;95199.00;;;16.18;61.35
40650;BME280;26342;42.826;23.992;2022-09-19T08:02:18;95206.03;;;16.46;60.13
40650;BME280;26342;42.826;23.992;2022-09-19T08:04:43;95199.97;;;16.68;58.35
40650;BME280;26342;42.826;23.992;2022-09-19T08:07:08;95188.81;;;16.89;49.91
40650;BME280;26342;42.826;23.992;2022-09-19T08:09:34;95192.19;;;17.08;51.16
40650;BME280;26342;42.826;23.992;2022-09-19T08:12:04;95187.06;;;17.20;45.77
40650;BME280;26342;42.826;23.992;2022-09-19T08:14:30;95190.44;;;17.40;46.36
40650;BME280;26342;42.826;23.992;2022-09-19T08:16:55;95193.94;;;17.40;45.40
40650;BME280;26342;42.826;23.992;2022-09-19T08:19:21;95182.81;;;17.42;48.96
40650;BME280;26342;42.826;23.992;2022-09-19T08:21:47;95182.25;;;17.67;50.58
40650;BME280;26342;42.826;23.992;2022-09-19T08:24:13;95174.81;;;17.87;46.30
40650;BME280;26342;42.826;23.992;2022-09-19T08:26:39;95182.19;;;18.26;50.96
40650;BME280;26342;42.826;23.992;2022-09-19T08:29:04;95174.00;;;18.48;40.47
40650;BME280;26342;42.826;23.992;2022-09-19T08:31:30;95177.00;;;18.69;49.19
40650;BME280;26342;42.826;23.992;2022-09-19T08:33:56;95168.81;;;18.91;45.36
40650;BME280;26342;42.826;23.992;2022-09-19T08:36:21;95174.25;;;19.09;40.44
40650;BME280;26342;42.826;23.992;2022-09-19T08:38:47;95171.28;;;19.28;38.72
40650;BME280;26342;42.826;23.992;2022-09-19T08:44:28;95170.19;;;19.72;36.43
40650;BME280;26342;42.826;23.992;2022-09-19T08:47:13;95158.09;;;19.87;37.61
40650;BME280;26342;42.826;23.992;2022-09-19T08:49:51;95164.59;;;20.03;39.08
40650;BME280;26342;42.826;23.992;2022-09-19T08:55:14;95157.50;;;20.45;36.72
40650;BME280;26342;42.826;23.992;2022-09-19T08:57:50;95145.28;;;20.69;33.80
40650;BME280;26342;42.826;23.992;2022-09-19T09:00:19;95134.03;;;20.87;35.93
40650;BME280;26342;42.826;23.992;2022-09-19T09:03:00;95128.84;;;20.74;29.91
40650;BME280;26342;42.826;23.992;2022-09-19T09:10:53;95119.75;;;20.99;27.32
40650;BME280;26342;42.826;23.992;2022-09-19T09:13:27;95120.84;;;20.77;26.69
40650;BME280;26342;42.826;23.992;2022-09-19T09:16:08;95123.69;;;20.81;26.64
40650;BME280;26342;42.826;23.992;2022-09-19T09:24:15;95115.50;;;21.19;26.72
40650;BME280;26342;42.826;23.992;2022-09-19T09:26:43;95126.97;;;21.16;25.97
40650;BME280;26342;42.826;23.992;2022-09-19T09:29:20;95121.50;;;21.33;26.53
40650;BME280;26342;42.826;23.992;2022-09-19T09:31:57;95125.56;;;21.39;25.78
40650;BME280;26342;42.826;23.992;2022-09-19T09:34:27;95130.41;;;21.34;24.83
40650;BME280;26342;42.826;23.992;2022-09-19T09:37:03;95124.31;;;21.58;26.06
40650;BME280;26342;42.826;23.992;2022-09-19T09:39:34;95118.84;;;21.79;25.27
40650;BME280;26342;42.826;23.992;2022-09-19T09:42:18;95116.63;;;22.14;26.96
40650;BME280;26342;42.826;23.992;2022-09-19T09:44:57;95117.22;;;22.32;25.84
40650;BME280;26342;42.826;23.992;2022-09-19T09:47:49;95122.59;;;22.52;25.88
40650;BME280;26342;42.826;23.992;2022-09-19T09:56:14;95099.25;;;22.64;24.03
40650;BME280;26342;42.826;23.992;2022-09-19T10:05:15;95085.03;;;23.19;23.54
40650;BME280;26342;42.826;23.992;2022-09-19T10:08:00;95086.94;;;23.31;27.67
40650;BME280;26342;42.826;23.992;2022-09-19T10:10:30;95076.06;;;23.59;23.87
40650;BME280;26342;42.826;23.992;2022-09-19T10:13:01;95085.53;;;23.49;23.01
40650;BME280;26342;42.826;23.992;2022-09-19T10:15:35;95078.00;;;23.71;24.63
40650;BME280;26342;42.826;23.992;2022-09-19T10:18:08;95083.13;;;23.88;23.13
40650;BME280;26342;42.826;23.992;2022-09-19T10:20:43;95076.19;;;23.90;25.09
40650;BME280;26342;42.826;23.992;2022-09-19T10:23:16;95081.44;;;24.27;27.54
40650;BME280;26342;42.826;23.992;2022-09-19T10:25:53;95080.50;;;24.07;22.17
40650;BME280;26342;42.826;23.992;2022-09-19T10:28:29;95086.69;;;24.20;23.26
40650;BME280;26342;42.826;23.992;2022-09-19T10:30:58;95073.75;;;24.17;20.55
40650;BME280;26342;42.826;23.992;2022-09-19T10:35:52;95080.38;;;23.72;20.73
40650;BME280;26342;42.826;23.992;2022-09-19T10:38:20;95071.34;;;24.00;22.47
40650;BME280;26342;42.826;23.992;2022-09-19T10:40:58;95072.78;;;24.09;21.70
40650;BME280;26342;42.826;23.992;2022-09-19T10:43:28;95071.84;;;23.74;21.83
40650;BME280;26342;42.826;23.992;2022-09-19T10:46:00;95064.25;;;23.67;20.38
40650;BME280;26342;42.826;23.992;2022-09-19T10:48:37;95065.00;;;23.80;20.84
40650;BME280;26342;42.826;23.992;2022-09-19T10:51:08;95061.22;;;23.56;21.59
40650;BME280;26342;42.826;23.992;2022-09-19T10:53:36;95076.66;;;23.64;21.90
40650;BME280;26342;42.826;23.992;2022-09-19T10:56:07;95064.47;;;23.74;23.47
40650;BME280;26342;42.826;23.992;2022-09-19T10:58:37;95066.53;;;23.65;24.64
40650;BME280;26342;42.826;23.992;2022-09-19T11:01:20;95029.91;;;23.50;23.85
40650;BME280;26342;42.826;23.992;2022-09-19T11:06:59;95044.31;;;23.63;22.67
40650;BME280;26342;42.826;23.992;2022-09-19T11:09:32;95001.47;;;23.48;23.14
40650;BME280;26342;42.826;23.992;2022-09-19T11:12:18;95042.16;;;23.84;25.30
40650;BME280;26342;42.826;23.992;2022-09-19T11:14:49;95034.41;;;23.71;24.12
40650;BME280;26342;42.826;23.992;2022-09-19T11:25:45;95025.69;;;23.53;25.38
40650;BME280;26342;42.826;23.992;2022-09-19T11:41:32;95005.31;;;23.47;25.39
40650;BME280;26342;42.826;23.992;2022-09-19T11:46:54;95004.94;;;22.80;25.03
40650;BME280;26342;42.826;23.992;2022-09-19T11:49:52;95004.19;;;22.67;24.90
40650;BME280;26342;42.826;23.992;2022-09-19T12:11:37;94989.91;;;23.10;26.92
40650;BME280;26342;42.826;23.992;2022-09-19T12:14:33;94980.66;;;22.99;26.37
40650;BME280;26342;42.826;23.992;2022-09-19T12:17:08;94984.31;;;22.91;21.62
40650;BME280;26342;42.826;23.992;2022-09-19T12:19:40;94977.84;;;22.96;25.41
40650;BME280;26342;42.826;23.992;2022-09-19T12:22:22;94964.53;;;23.06;23.81
40650;BME280;26342;42.826;23.992;2022-09-19T12:24:52;94968.16;;;23.10;24.55
40650;BME280;26342;42.826;23.992;2022-09-19T12:27:22;94963.78;;;23.22;22.34
40650;BME280;26342;42.826;23.992;2022-09-19T12:30:01;94951.06;;;23.26;21.09
40650;BME280;26342;42.826;23.992;2022-09-19T12:38:11;94956.28;;;22.91;21.62
40650;BME280;26342;42.826;23.992;2022-09-19T12:46:17;94948.75;;;23.12;24.07
40650;BME280;26342;42.826;23.992;2022-09-19T12:51:20;94941.56;;;23.20;26.50
40650;BME280;26342;42.826;23.992;2022-09-19T12:53:57;94935.34;;;23.19;23.85
40650;BME280;26342;42.826;23.992;2022-09-19T12:56:32;94938.59;;;23.25;24.70
40650;BME280;26342;42.826;23.992;2022-09-19T13:06:52;94943.34;;;22.60;24.38
40650;BME280;26342;42.826;23.992;2022-09-19T13:09:24;94944.75;;;22.29;23.70
40650;BME280;26342;42.826;23.992;2022-09-19T13:11:56;94945.88;;;22.16;24.65
40650;BME280;26342;42.826;23.992;2022-09-19T13:17:00;94946.78;;;22.20;26.22
40650;BME280;26342;42.826;23.992;2022-09-19T13:19:46;94945.41;;;22.26;28.02
40650;BME280;26342;42.826;23.992;2022-09-19T13:22:45;94938.38;;;22.00;25.16
40650;BME280;26342;42.826;23.992;2022-09-19T13:25:30;94932.06;;;22.09;27.02
40650;BME280;26342;42.826;23.992;2022-09-19T13:31:06;94937.94;;;22.11;25.94
40650;BME280;26342;42.826;23.992;2022-09-19T13:36:12;94939.97;;;21.89;27.57
40650;BME280;26342;42.826;23.992;2022-09-19T13:38:41;94937.81;;;21.83;26.34
40650;BME280;26342;42.826;23.992;2022-09-19T13:47:03;94948.50;;;21.55;26.45
40650;BME280;26342;42.826;23.992;2022-09-19T13:52:16;94948.06;;;21.53;29.38
40650;BME280;26342;42.826;23.992;2022-09-19T13:57:22;94948.75;;;21.50;29.39
40650;BME280;26342;42.826;23.992;2022-09-19T14:00:08;94942.38;;;21.45;30.83
40650;BME280;26342;42.826;23.992;2022-09-19T14:02:40;94938.19;;;21.36;28.81
40650;BME280;26342;42.826;23.992;2022-09-19T14:05:12;94936.13;;;21.33;27.46
40650;BME280;26342;42.826;23.992;2022-09-19T14:10:17;94937.78;;;21.25;28.94
40650;BME280;26342;42.826;23.992;2022-09-19T14:20:51;94944.72;;;21.02;31.83
40650;BME280;26342;42.826;23.992;2022-09-19T14:23:21;94948.88;;;20.99;34.01
40650;BME280;26342;42.826;23.992;2022-09-19T14:40:16;94949.44;;;20.42;33.16
40650;BME280;26342;42.826;23.992;2022-09-19T14:48:36;94950.47;;;20.29;33.07
40650;BME280;26342;42.826;23.992;2022-09-19T14:56:29;94945.13;;;20.20;32.50
40650;BME280;26342;42.826;23.992;2022-09-19T14:58:55;94947.38;;;20.18;34.97
40650;BME280;26342;42.826;23.992;2022-09-19T15:01:28;94961.75;;;20.10;35.26
40650;BME280;26342;42.826;23.992;2022-09-19T15:06:36;94964.88;;;19.91;36.12
40650;BME280;26342;42.826;23.992;2022-09-19T15:09:30;94961.28;;;19.70;38.25
40650;BME280;26342;42.826;23.992;2022-09-19T15:11:58;94962.44;;;19.60;39.69
40650;BME280;26342;42.826;23.992;2022-09-19T15:14:25;94969.13;;;19.54;40.09
40650;BME280;26342;42.826;23.992;2022-09-19T15:17:13;94961.16;;;19.49;40.94
40650;BME280;26342;42.826;23.992;2022-09-19T15:19:41;94972.00;;;19.40;38.48
40650;BME280;26342;42.826;23.992;2022-09-19T15:27:56;94979.72;;;18.69;43.01
40650;BME280;26342;42.826;23.992;2022-09-19T15:30:23;94981.25;;;18.61;45.20
40650;BME280;26342;42.826;23.992;2022-09-19T15:32:55;94982.19;;;18.48;46.25
40650;BME280;26342;42.826;23.992;2022-09-19T15:35:23;94982.97;;;18.31;46.36
40650;BME280;26342;42.826;23.992;2022-09-19T15:37:58;94984.19;;;18.17;47.02
40650;BME280;26342;42.826;23.992;2022-09-19T15:40:29;94984.81;;;18.05;47.55
40650;BME280;26342;42.826;23.992;2022-09-19T15:42:56;94988.84;;;17.85;48.78
40650;BME280;26342;42.826;23.992;2022-09-19T15:48:00;94992.28;;;17.15;48.65
40650;BME280;26342;42.826;23.992;2022-09-19T15:50:30;94994.59;;;17.08;50.09
40650;BME280;26342;42.826;23.992;2022-09-19T15:52:57;94978.06;;;16.78;48.54
40650;BME280;26342;42.826;23.992;2022-09-19T15:55:25;94986.63;;;16.66;49.34
40650;BME280;26342;42.826;23.992;2022-09-19T15:57:57;94997.22;;;16.63;48.91
40650;BME280;26342;42.826;23.992;2022-09-19T16:00:25;95000.94;;;16.53;50.72
40650;BME280;26342;42.826;23.992;2022-09-19T16:03:02;95007.38;;;16.30;52.82
40650;BME280;26342;42.826;23.992;2022-09-19T16:05:32;95005.09;;;16.09;54.36
40650;BME280;26342;42.826;23.992;2022-09-19T16:08:01;95004.91;;;16.06;56.59
40650;BME280;26342;42.826;23.992;2022-09-19T16:10:47;95020.25;;;16.05;58.74
40650;BME280;26342;42.826;23.992;2022-09-19T16:13:39;95017.75;;;16.09;57.78
40650;BME280;26342;42.826;23.992;2022-09-19T16:16:29;95017.97;;;16.12;58.01
40650;BME280;26342;42.826;23.992;2022-09-19T16:18:58;95026.22;;;16.16;57.46
40650;BME280;26342;42.826;23.992;2022-09-19T16:21:39;95032.19;;;16.27;57.45
40650;BME280;26342;42.826;23.992;2022-09-19T16:24:26;95034.47;;;16.33;55.30
40650;BME280;26342;42.826;23.992;2022-09-19T16:26:55;95027.31;;;16.29;55.08
40650;BME280;26342;42.826;23.992;2022-09-19T16:29:29;95032.41;;;16.30;55.59
40650;BME280;26342;42.826;23.992;2022-09-19T16:32:01;95028.69;;;16.26;56.22
40650;BME280;26342;42.826;23.992;2022-09-19T16:34:34;95032.63;;;16.06;57.06
40650;BME280;26342;42.826;23.992;2022-09-19T16:37:01;95031.81;;;15.92;57.90